Norman Y. Mineta San Jose International Airport
KSJC : now visible

Airfield :











YOU CAN JOIN US ON...

 
LOGIN :

Register | Disclaimer

   EN    FR    IT 

 









Legend :    VFR   Marginal VFR   IFR   Intensive IFR   Very Intensive IFR
Visi :
Ceiling :
>= 8 km
>= 3000ft
5 to 8 km
1000 to 3000 ft
1500m to 5 km
500 to 1000 ft
800 to 1500m
200 to 500 ft
< 800m
< 200 ft
Symbols :   Thunderstorms  Fog  Heavy snow  Heavy precipitations  Wind > 20 kt






- Airport Elevation : 62 ft
- IATA code : SJC


KSJC - Norman Y. Mineta San Jose International

CURRENT METAR :
  • 071953Z 00000KT 10SM CLR 26/12 A2992 RMK AO2 SLP130 T02560117

EXPIRED METARs :
  • 071853Z 00000KT 10SM CLR 24/11 A2993 RMK AO2 SLP133 T02390111
  • 071753Z 13008KT 10SM CLR 21/11 A2993 RMK AO2 SLP135 T02110111 10211 20150 58001

TAF KSJC
Valid from the 07 at 18:00 until the 08 at 18:00 UTC


071737Z 0718/0818 14010KT P6SM SKC
FM072100 30010KT P6SM SKC
FM080400 32005KT P6SM SKC
FM080800 14005KT P6SM SKC
FM081700 30007KT P6SM SKC
KZOA FIR / North America



MET'MAP, your aeronautical weather chart ! - Copyright ORBIFLY December 2007 - Disclaimer

ORBIFLY MET'MAP TEAM :

Programming & Development : Alexandra Zaïnal
Concept & original design : Baudouin d'Aumeries
Assistance for programming : Marc-Olivier Méhu
Technical & hardware support : Manuel Goepfert

Contact : metmap@orbifly.com




SOURCES & CREDITS :

   NOAA       Earth
Advisory